Coral Canyon GC
1925 N Canyon Greens Drive, Washington
Last Weather Update:02/23/2012 7:00:00 PM
Date
ETo
ETc
Rain
Irrigation
Req
Temp
Max
Temp
Min
Temp
Avg
Avg RH
Avg Wind
Avg Solar
inches
inches
incehs
inches
F
F
F
%
%
watts/m2
01/01/2012 0.05" 0.00" 0.00" 0.00" 57.8° 20.2° 35.8° 54.1% 0.0 MPH 122.3w/m2
01/02/2012 0.05" 0.00" 0.00" 0.00" 62.7° 26.7° 42.0° 41.2% 0.0 MPH 124.0w/m2
01/03/2012 0.05" 0.00" 0.00" 0.00" 61.0° 30.3° 43.0° 35.9% 0.0 MPH 120.4w/m2
01/04/2012 0.05" 0.00" 0.00" 0.00" 61.8° 21.1° 38.2° 51.7% 0.0 MPH 125.0w/m2
01/05/2012 0.05" 0.00" 0.00" 0.00" 60.0° 22.4° 39.2° 49.9% 0.0 MPH 122.9w/m2
01/06/2012 0.05" 0.00" 0.00" 0.00" 60.1° 21.7° 37.3° 54.9% 0.0 MPH 125.2w/m2
01/07/2012 0.04" 0.00" 0.00" 0.00" 57.1° 21.2° 38.2° 54.3% 0.0 MPH 97.6w/m2
01/08/2012 0.05" 0.00" 0.00" 0.00" 53.0° 25.1° 39.0° 44.0% 0.0 MPH 129.1w/m2
01/09/2012 0.04" 0.00" 0.00" 0.00" 50.9° 22.4° 34.9° 58.1% 0.0 MPH 106.7w/m2
01/10/2012 0.05" 0.00" 0.00" 0.00" 56.0° 23.0° 36.9° 61.0% 0.0 MPH 126.1w/m2
01/11/2012 0.05" 0.00" 0.00" 0.00" 56.2° 22.3° 37.7° 49.9% 0.0 MPH 128.8w/m2
01/12/2012 0.05" 0.00" 0.00" 0.00" 51.2° 22.1° 34.1° 43.4% 0.0 MPH 122.1w/m2
01/13/2012 0.05" 0.00" 0.00" 0.00" 53.9° 14.4° 30.8° 42.5% 0.0 MPH 135.7w/m2
01/14/2012 0.05" 0.00" 0.00" 0.00" 54.0° 15.1° 32.2° 40.2% 0.0 MPH 135.5w/m2
01/15/2012 0.04" 0.00" 0.00" 0.00" 53.4° 18.7° 37.8° 37.9% 0.0 MPH 106.8w/m2
01/16/2012 0.06" 0.00" 0.00" 0.00" 56.2° 20.5° 42.6° 41.9% 0.0 MPH 133.7w/m2
01/17/2012 0.05" 0.00" 0.00" 0.00" 47.7° 12.7° 29.5° 51.5% 0.1 MPH 137.4w/m2
01/18/2012 0.05" 0.00" 0.00" 0.00" 51.4° 18.5° 33.9° 51.7% 0.0 MPH 123.5w/m2
01/19/2012 0.04" 0.00" 0.00" 0.00" 51.4° 23.3° 35.7° 51.0% 0.1 MPH 97.7w/m2
01/20/2012 0.06" 0.00" 0.00" 0.00" 57.8° 22.0° 39.4° 46.8% 0.2 MPH 124.5w/m2
01/21/2012 0.02" 0.00" 0.20" -0.16" 57.3° 37.8° 44.5° 64.0% 0.1 MPH 37.6w/m2
01/22/2012 0.04" 0.00" 0.00" 0.00" 49.3° 24.8° 38.0° 64.4% 0.0 MPH 110.7w/m2
01/23/2012 0.01" 0.00" 0.37" -0.30" 39.7° 30.5° 36.1° 86.9% 0.0 MPH 17.0w/m2
01/24/2012 0.05" 0.00" 0.00" 0.00" 52.0° 29.7° 38.0° 81.1% 0.3 MPH 125.4w/m2
01/25/2012 0.05" 0.00" 0.00" 0.00" 55.9° 25.6° 38.3° 73.5% 0.5 MPH 145.9w/m2
01/26/2012 0.05" 0.00" 0.00" 0.00" 55.1° 27.0° 39.6° 79.3% 0.1 MPH 118.2w/m2
01/27/2012 0.06" 0.00" 0.00" 0.00" 56.0° 27.0° 42.4° 54.8% 0.0 MPH 155.8w/m2
01/28/2012 0.06" 0.00" 0.00" 0.00" 53.1° 19.8° 35.7° 50.7% 0.0 MPH 154.6w/m2
01/29/2012 0.05" 0.00" 0.00" 0.00" 53.9° 22.5° 36.2° 56.1% 0.0 MPH 127.2w/m2
01/30/2012 0.06" 0.00" 0.00" 0.00" 56.2° 20.6° 38.1° 57.4% 0.0 MPH 139.9w/m2
01/31/2012 0.06" 0.00" 0.00" 0.00" 60.4° 25.7° 41.0° 51.5% 0.0 MPH 147.3w/m2
Totals: 1.47" 0.00" 0.57" -0.46" 62.7° 12.7° 37.6° 54.2% 0.0 MPH 120.2w/m2